Terminal Aerodrome Forecast
Issued by NWS

Home | Current Version | Previous Version | Text Only | Print | Product List | Glossary On
Versions: 1 2 3 4 5 6 7 8 9 10 11 12 13 14 15 16 17 18 19
000
FTUS43 KICT 301144
TAFRSL
TAF
KRSL 301144Z 3012/3112 20008KT P6SM SCT200
     FM301700 19012KT P6SM FEW050 SCT250
     FM302100 18015KT P6SM SCT050 SCT250
     FM310500 20010KT 5SM +TSRA BKN020 BKN090CB
     FM311100 24007KT P6SM BKN060=

USA.gov is the U.S. government's official web portal to all federal, state and local government web resources and services.